createdAt,value
2018-01-23T00:01:44.183Z,27.15
2018-01-23T00:04:11.811Z,35.42
2018-01-23T00:06:39.376Z,48.20
2018-01-23T00:09:07.713Z,28.48
2018-01-23T00:11:35.341Z,31.17
2018-01-23T00:14:02.865Z,45.35
2018-01-23T00:16:30.466Z,44.90
2018-01-23T00:18:58.812Z,31.33
2018-01-23T00:21:26.392Z,32.60
2018-01-23T00:23:53.980Z,25.92
2018-01-23T00:26:21.693Z,25.50
2018-01-23T00:28:49.356Z,24.12
2018-01-23T00:31:16.975Z,32.15
2018-01-23T00:33:45.324Z,26.83
2018-01-23T00:36:13.367Z,26.83
2018-01-23T00:38:40.986Z,28.75
2018-01-23T00:41:09.310Z,37.55
2018-01-23T00:43:36.872Z,24.48
2018-01-23T00:46:04.472Z,25.25
2018-01-23T00:48:32.015Z,34.20
2018-01-23T00:50:59.693Z,24.30
2018-01-23T00:53:28.067Z,30.77
2018-01-23T00:55:55.626Z,25.37
2018-01-23T00:58:23.935Z,25.17
2018-01-23T01:00:51.465Z,31.05
2018-01-23T01:03:19.035Z,30.02
2018-01-23T01:05:46.565Z,22.40
2018-01-23T01:08:14.182Z,26.12
2018-01-23T01:10:41.727Z,24.42
2018-01-23T01:13:10.100Z,20.80
2018-01-23T01:15:38.496Z,37.95
2018-01-23T01:18:06.038Z,32.15
2018-01-23T01:20:34.375Z,28.60
2018-01-23T01:23:01.970Z,31.65
2018-01-23T01:25:30.261Z,24.67
2018-01-23T01:27:57.833Z,31.85
2018-01-23T01:30:25.419Z,25.12
2018-01-23T01:32:53.038Z,39.60
2018-01-23T01:35:21.340Z,24.42
2018-01-23T01:37:48.977Z,29.60
2018-01-23T01:40:16.546Z,27.77
2018-01-23T01:42:44.152Z,25.58
2018-01-23T01:45:11.708Z,26.58
2018-01-23T01:47:39.331Z,43.08
2018-01-23T01:50:06.849Z,24.45
2018-01-23T01:52:34.399Z,38.70
2018-01-23T01:55:01.990Z,25.60
2018-01-23T01:57:29.664Z,35.17
2018-01-23T01:59:58.118Z,32.50
2018-01-23T02:02:25.692Z,25.17
2018-01-23T02:04:54.033Z,27.25
2018-01-23T02:07:21.589Z,25.50
2018-01-23T02:09:49.187Z,26.33
2018-01-23T02:12:16.739Z,19.48
2018-01-23T02:14:45.778Z,24.35
2018-01-23T02:17:13.613Z,25.15
2018-01-23T02:19:41.999Z,40.15
2018-01-23T02:22:09.544Z,26.17
2018-01-23T02:24:37.104Z,32.60
2018-01-23T02:27:04.698Z,28.15
2018-01-23T02:29:32.261Z,29.12
2018-01-23T02:31:59.827Z,35.47
2018-01-23T02:34:27.388Z,25.30
2018-01-23T02:36:54.942Z,26.92
2018-01-23T02:39:22.507Z,28.08
2018-01-23T02:41:50.080Z,22.23
2018-01-23T02:44:17.745Z,35.15
2018-01-23T02:46:45.417Z,35.22
2018-01-23T02:49:12.989Z,31.40
2018-01-23T02:51:40.628Z,24.48
2018-01-23T02:54:08.972Z,28.50
2018-01-23T02:56:36.571Z,33.08
2018-01-23T02:59:05.083Z,31.98
2018-01-23T03:01:32.638Z,28.38
2018-01-23T03:04:00.239Z,27.10
2018-01-23T03:06:27.804Z,31.05
2018-01-23T03:08:55.383Z,25.42
2018-01-23T03:11:23.726Z,32.72
2018-01-23T03:13:51.310Z,38.75
2018-01-23T03:16:18.866Z,25.45
2018-01-23T03:18:46.429Z,36.35
2018-01-23T03:21:14.086Z,28.73
2018-01-23T03:23:42.428Z,24.50
2018-01-23T03:26:09.971Z,23.60
2018-01-23T03:28:37.850Z,28.52
2018-01-23T03:31:05.450Z,33.10
2018-01-23T03:33:33.551Z,31.40
2018-01-23T03:36:01.898Z,29.70
2018-01-23T03:38:29.523Z,26.25
2018-01-23T03:40:57.112Z,29.17
2018-01-23T03:43:24.673Z,27.80
2018-01-23T03:45:52.236Z,29.52
2018-01-23T03:48:19.802Z,32.63
2018-01-23T03:50:47.365Z,26.27
2018-01-23T03:53:15.069Z,40.22
2018-01-23T03:55:42.626Z,26.58
2018-01-23T03:58:10.201Z,26.92
2018-01-23T04:00:37.820Z,22.95
2018-01-23T04:03:06.117Z,21.27
2018-01-23T04:05:33.701Z,30.73
2018-01-23T04:08:01.532Z,27.92
2018-01-23T04:10:29.846Z,24.70
2018-01-23T04:12:57.922Z,39.05
2018-01-23T04:15:25.538Z,27.87
2018-01-23T04:17:53.867Z,27.23
2018-01-23T04:20:21.473Z,19.60
2018-01-23T04:22:49.779Z,35.75
2018-01-23T04:25:17.349Z,22.80
2018-01-23T04:27:44.932Z,25.33
2018-01-23T04:30:12.485Z,28.33
2018-01-23T04:32:40.031Z,31.98
2018-01-23T04:35:07.620Z,23.15
2018-01-23T04:37:35.434Z,41.42
2018-01-23T04:40:03.804Z,25.77
2018-01-23T04:42:32.168Z,27.30
2018-01-23T04:45:00.596Z,29.48
2018-01-23T04:47:28.122Z,30.35
2018-01-23T04:49:56.471Z,25.77
2018-01-23T04:52:24.011Z,30.10
2018-01-23T04:54:51.627Z,30.98
2018-01-23T04:57:19.201Z,32.47
2018-01-23T04:59:46.771Z,29.48
2018-01-23T05:02:14.356Z,27.15
2018-01-23T05:04:41.927Z,23.50
2018-01-23T05:07:09.454Z,18.80
2018-01-23T05:09:37.001Z,28.83
2018-01-23T05:12:04.548Z,25.92
2018-01-23T05:14:32.160Z,30.55
2018-01-23T05:16:59.702Z,29.58
2018-01-23T05:19:27.259Z,30.42
2018-01-23T05:21:54.856Z,22.17
2018-01-23T05:24:23.230Z,27.35
2018-01-23T05:26:50.777Z,23.17
2018-01-23T05:29:18.351Z,28.50
2018-01-23T05:31:46.008Z,23.05
2018-01-23T05:34:13.636Z,37.38
2018-01-23T05:36:41.244Z,30.48
2018-01-23T05:39:08.852Z,33.13
2018-01-23T05:41:37.038Z,28.25
2018-01-23T05:44:04.587Z,33.17
2018-01-23T05:46:32.182Z,39.05
2018-01-23T05:48:59.731Z,24.77
2018-01-23T05:51:27.281Z,33.40
2018-01-23T05:53:55.465Z,30.90
2018-01-23T05:56:23.025Z,32.22
2018-01-23T05:58:50.569Z,29.37
2018-01-23T06:01:18.126Z,30.10
2018-01-23T06:03:45.670Z,34.33
2018-01-23T06:06:13.872Z,28.85
2018-01-23T06:08:41.460Z,30.85
2018-01-23T06:11:09.036Z,24.73
2018-01-23T06:13:36.651Z,32.17
2018-01-23T06:16:04.206Z,26.50
2018-01-23T06:18:31.911Z,31.05
2018-01-23T06:20:59.440Z,28.45
2018-01-23T06:23:27.021Z,33.78
2018-01-23T06:25:55.374Z,33.35
2018-01-23T06:28:22.965Z,37.67
2018-01-23T06:30:50.539Z,36.47
2018-01-23T06:33:18.967Z,28.10
2018-01-23T06:35:46.644Z,31.80
2018-01-23T06:38:14.318Z,32.33
2018-01-23T06:40:41.963Z,40.63
2018-01-23T06:43:09.567Z,29.37
2018-01-23T06:45:38.090Z,32.72
2018-01-23T06:48:06.430Z,29.77
2018-01-23T06:50:34.043Z,29.80
2018-01-23T06:53:01.649Z,40.38
2018-01-23T06:55:29.280Z,33.53
2018-01-23T06:57:56.858Z,36.88
2018-01-23T07:00:24.528Z,31.80
2018-01-23T07:02:52.356Z,31.08
2018-01-23T07:05:20.845Z,37.90
2018-01-23T07:07:48.507Z,34.42
2018-01-23T07:10:16.859Z,32.53
2018-01-23T07:12:44.529Z,38.65
2018-01-23T07:15:12.104Z,49.47
2018-01-23T07:17:40.467Z,28.30
2018-01-23T07:20:08.070Z,38.85
2018-01-23T07:22:35.645Z,30.27
2018-01-23T07:25:03.185Z,30.65
2018-01-23T07:27:31.548Z,31.73
2018-01-23T07:29:59.849Z,33.60
2018-01-23T07:32:27.433Z,28.45
2018-01-23T07:34:55.093Z,30.60
2018-01-23T07:37:22.693Z,24.65
2018-01-23T07:39:50.293Z,40.20
2018-01-23T07:42:17.871Z,39.55
2018-01-23T07:44:45.482Z,30.77
2018-01-23T07:47:13.855Z,35.60
2018-01-23T07:49:42.269Z,40.22
2018-01-23T07:52:09.825Z,35.55
2018-01-23T07:54:37.482Z,35.00
2018-01-23T07:57:05.045Z,29.67
2018-01-23T07:59:32.910Z,29.98
2018-01-23T08:02:00.514Z,56.25
2018-01-23T08:04:28.126Z,25.88
2018-01-23T08:06:56.546Z,34.47
2018-01-23T08:09:24.182Z,31.12
2018-01-23T08:11:52.636Z,29.25
2018-01-23T08:14:20.243Z,31.40
2018-01-23T08:16:48.618Z,30.02
2018-01-23T08:19:17.002Z,33.30
2018-01-23T08:21:44.632Z,31.37
2018-01-23T08:24:12.208Z,34.28
2018-01-23T08:26:39.752Z,25.30
2018-01-23T08:29:08.100Z,30.23
2018-01-23T08:31:35.661Z,29.63
2018-01-23T08:34:03.250Z,36.10
2018-01-23T08:36:31.643Z,42.00
2018-01-23T08:38:59.363Z,38.38
2018-01-23T08:41:26.916Z,30.10
2018-01-23T08:43:55.250Z,43.58
2018-01-23T08:46:22.769Z,28.17
2018-01-23T08:48:50.349Z,28.15
2018-01-23T08:51:17.907Z,27.85
2018-01-23T08:53:45.484Z,34.88
2018-01-23T08:56:13.026Z,29.02
2018-01-23T08:58:41.380Z,30.67
2018-01-23T09:01:08.972Z,40.20
2018-01-23T09:03:36.554Z,45.65
2018-01-23T09:06:04.113Z,28.55
2018-01-23T09:08:31.645Z,27.37
2018-01-23T09:11:00.177Z,24.08
2018-01-23T09:13:27.846Z,26.92
2018-01-23T09:15:55.400Z,27.75
2018-01-23T09:18:22.963Z,36.78
2018-01-23T09:20:50.496Z,38.13
2018-01-23T09:23:18.218Z,29.20
2018-01-23T09:25:45.789Z,29.45
2018-01-23T09:28:14.173Z,30.67
2018-01-23T09:30:42.827Z,37.30
2018-01-23T09:33:10.385Z,25.20
2018-01-23T09:35:37.938Z,30.08
2018-01-23T09:38:05.533Z,27.65
2018-01-23T09:40:33.838Z,28.40
2018-01-23T09:43:01.402Z,33.42
2018-01-23T09:45:29.061Z,20.58
2018-01-23T09:47:56.734Z,27.25
2018-01-23T09:50:24.325Z,22.85
2018-01-23T09:52:52.139Z,32.25
2018-01-23T09:55:19.835Z,31.50
2018-01-23T09:57:47.689Z,24.65
2018-01-23T10:00:15.656Z,26.85
2018-01-23T10:02:43.350Z,39.15
2018-01-23T10:05:10.933Z,26.62
2018-01-23T10:07:39.340Z,27.65
2018-01-23T10:10:06.916Z,25.37
2018-01-23T10:12:34.486Z,25.67
2018-01-23T10:15:02.161Z,28.15
2018-01-23T10:17:29.753Z,26.00
2018-01-23T10:19:57.425Z,38.03
2018-01-23T10:22:25.010Z,30.33
2018-01-23T10:24:52.689Z,35.53
2018-01-23T10:27:20.227Z,23.52
2018-01-23T10:29:47.844Z,28.83
2018-01-23T10:32:15.397Z,21.05
2018-01-23T10:34:43.034Z,32.03
2018-01-23T10:37:10.674Z,24.75
2018-01-23T10:39:38.259Z,35.80
2018-01-23T10:42:05.836Z,19.50
2018-01-23T10:44:33.476Z,29.60
2018-01-23T10:47:01.064Z,24.67
2018-01-23T10:49:28.628Z,26.55
2018-01-23T10:51:56.186Z,22.62
2018-01-23T10:54:24.941Z,21.60
2018-01-23T10:56:52.503Z,31.20
2018-01-23T10:59:20.124Z,21.37
2018-01-23T11:01:48.528Z,27.20
2018-01-23T11:04:16.160Z,23.20
2018-01-23T11:06:44.489Z,35.03
2018-01-23T11:09:12.032Z,21.95
2018-01-23T11:11:39.617Z,37.38
2018-01-23T11:14:07.228Z,21.33
2018-01-23T11:16:35.541Z,19.42
2018-01-23T11:19:03.093Z,37.63
2018-01-23T11:21:30.649Z,21.15
2018-01-23T11:23:58.379Z,22.45
2018-01-23T11:26:26.695Z,17.85
2018-01-23T11:28:54.368Z,23.27
2018-01-23T11:31:21.951Z,22.65
2018-01-23T11:33:49.571Z,24.90
2018-01-23T11:36:17.164Z,25.90
2018-01-23T11:38:44.748Z,15.55
2018-01-23T11:41:13.076Z,25.80
2018-01-23T11:43:40.618Z,27.50
2018-01-23T11:46:08.160Z,27.83
2018-01-23T11:48:36.484Z,21.60
2018-01-23T11:51:04.080Z,33.60
2018-01-23T11:53:32.434Z,21.52
2018-01-23T11:56:00.000Z,27.90
2018-01-23T11:58:27.584Z,21.10
2018-01-23T12:00:55.922Z,13.55
2018-01-23T12:03:23.891Z,23.75
2018-01-23T12:05:52.224Z,20.52
2018-01-23T12:08:20.517Z,15.88
2018-01-23T12:10:48.308Z,17.67
2018-01-23T12:13:15.844Z,19.02
2018-01-23T12:15:43.429Z,17.37
2018-01-23T12:18:11.001Z,9.98
2018-01-23T12:20:38.675Z,18.17
2018-01-23T12:23:07.328Z,7.03
2018-01-23T12:25:35.160Z,18.33
2018-01-23T12:28:03.637Z,17.08
2018-01-23T12:30:31.211Z,14.68
2018-01-23T12:32:59.252Z,14.87
2018-01-23T12:35:27.662Z,8.07
2018-01-23T12:37:55.271Z,12.57
2018-01-23T12:40:23.715Z,10.30
2018-01-23T12:42:51.481Z,15.57
2018-01-23T12:45:19.117Z,13.43
2018-01-23T12:47:46.702Z,10.38
2018-01-23T12:50:14.336Z,15.88
2018-01-23T12:52:42.705Z,7.05
2018-01-23T12:55:11.074Z,8.73
2018-01-23T12:57:38.644Z,13.68
2018-01-23T13:00:07.879Z,15.25
2018-01-23T13:02:35.447Z,9.50
2018-01-23T13:05:03.158Z,11.85
2018-01-23T13:07:31.538Z,13.65
2018-01-23T13:09:59.125Z,7.93
2018-01-23T13:12:26.741Z,9.25
2018-01-23T13:14:54.361Z,8.48
2018-01-23T13:17:22.038Z,10.52
2018-01-23T13:19:49.635Z,15.93
2018-01-23T13:22:17.285Z,13.05
2018-01-23T13:24:45.021Z,20.62
2018-01-23T13:27:13.167Z,12.70
2018-01-23T13:29:40.744Z,13.02
2018-01-23T13:32:08.475Z,10.38
2018-01-23T13:34:36.825Z,13.57
2018-01-23T13:37:04.384Z,9.57
2018-01-23T13:39:32.016Z,11.98
2018-01-23T13:41:59.572Z,11.27
2018-01-23T13:44:27.107Z,11.93
2018-01-23T13:46:55.389Z,11.15
2018-01-23T13:49:22.993Z,12.57
2018-01-23T13:51:50.608Z,10.13
2018-01-23T13:54:18.230Z,14.75
2018-01-23T13:56:45.849Z,16.87
2018-01-23T13:59:14.300Z,12.40
2018-01-23T14:01:41.864Z,17.15
2018-01-23T14:04:10.145Z,6.40
2018-01-23T14:06:37.716Z,7.95
2018-01-23T14:09:05.250Z,14.27
2018-01-23T14:11:33.599Z,17.75
2018-01-23T14:14:01.245Z,14.98
2018-01-23T14:16:28.798Z,11.80
2018-01-23T14:18:56.335Z,8.68
2018-01-23T14:21:23.878Z,7.90
2018-01-23T14:23:52.332Z,13.98
2018-01-23T14:26:19.881Z,13.62
2018-01-23T14:28:47.636Z,5.43
2018-01-23T14:31:15.231Z,12.13
2018-01-23T14:33:43.561Z,9.25
2018-01-23T14:36:11.527Z,10.10
2018-01-23T14:38:39.090Z,6.60
2018-01-23T14:41:06.698Z,8.80
2018-01-23T14:43:35.116Z,8.77
2018-01-23T14:46:02.738Z,13.55
2018-01-23T14:48:31.950Z,7.70
2018-01-23T14:50:59.534Z,10.63
2018-01-23T14:53:27.101Z,6.78
2018-01-23T14:55:54.663Z,15.98
2018-01-23T14:58:22.212Z,8.43
2018-01-23T15:00:49.874Z,18.00
2018-01-23T15:03:17.498Z,3.45
2018-01-23T15:05:45.062Z,10.13
2018-01-23T15:08:13.434Z,10.48
2018-01-23T15:10:41.777Z,12.45
2018-01-23T15:13:09.359Z,7.97
2018-01-23T15:15:36.911Z,10.68
2018-01-23T15:18:05.576Z,7.65
2018-01-23T15:20:33.221Z,11.23
2018-01-23T15:23:00.890Z,12.52
2018-01-23T15:25:28.474Z,7.20
2018-01-23T15:27:56.019Z,8.60
2018-01-23T15:30:23.541Z,8.07
2018-01-23T15:32:51.152Z,10.57
2018-01-23T15:35:18.832Z,11.55
2018-01-23T15:37:46.489Z,9.88
2018-01-23T15:40:14.139Z,7.05
2018-01-23T15:42:41.761Z,6.15
2018-01-23T15:45:10.152Z,7.10
2018-01-23T15:47:37.780Z,4.85
2018-01-23T15:50:06.254Z,8.90
2018-01-23T15:52:34.569Z,10.73
2018-01-23T15:55:02.197Z,9.95
2018-01-23T15:57:29.749Z,13.68
2018-01-23T15:59:57.451Z,7.25
2018-01-23T16:02:25.054Z,8.77
2018-01-23T16:04:54.255Z,21.60
2018-01-23T16:07:21.838Z,13.98
2018-01-23T16:09:50.329Z,7.70
2018-01-23T16:12:17.996Z,11.98
2018-01-23T16:14:45.607Z,14.05
2018-01-23T16:17:13.207Z,11.95
2018-01-23T16:19:40.820Z,11.02
2018-01-23T16:22:09.125Z,6.32
2018-01-23T16:24:36.687Z,12.82
2018-01-23T16:27:04.257Z,7.50
2018-01-23T16:29:32.619Z,16.33
2018-01-23T16:32:00.227Z,15.65
2018-01-23T16:34:27.782Z,9.00
2018-01-23T16:36:56.190Z,7.60
2018-01-23T16:39:24.513Z,9.43
2018-01-23T16:41:52.256Z,10.10
2018-01-23T16:44:19.801Z,6.95
2018-01-23T16:46:47.400Z,15.60
2018-01-23T16:49:15.008Z,8.23
2018-01-23T16:51:43.374Z,6.82
2018-01-23T16:54:10.967Z,13.93
2018-01-23T16:56:39.487Z,15.68
2018-01-23T16:59:07.082Z,11.45
2018-01-23T17:01:34.634Z,12.35
2018-01-23T17:04:02.216Z,6.43
2018-01-23T17:06:30.557Z,6.37
2018-01-23T17:08:58.241Z,7.37
2018-01-23T17:11:25.805Z,5.53
2018-01-23T17:13:54.195Z,8.43
2018-01-23T17:16:23.510Z,11.77
2018-01-23T17:18:51.050Z,10.65
2018-01-23T17:21:19.372Z,8.52
2018-01-23T17:23:46.925Z,6.55
2018-01-23T17:26:14.588Z,21.87
2018-01-23T17:28:42.164Z,7.12
2018-01-23T17:31:09.706Z,7.32
2018-01-23T17:33:37.311Z,5.15
2018-01-23T17:36:04.908Z,12.80
2018-01-23T17:38:32.900Z,8.20
2018-01-23T17:41:00.494Z,9.48
2018-01-23T17:43:28.955Z,14.73
2018-01-23T17:45:56.542Z,12.88
2018-01-23T17:48:24.824Z,7.12
2018-01-23T17:50:52.388Z,4.82
2018-01-23T17:53:20.069Z,5.62
2018-01-23T17:55:47.688Z,10.32
2018-01-23T17:58:15.254Z,8.15
2018-01-23T18:00:42.878Z,5.78
2018-01-23T18:03:10.400Z,8.63
2018-01-23T18:05:38.002Z,12.80
2018-01-23T18:08:05.627Z,11.88
2018-01-23T18:10:33.252Z,10.20
2018-01-23T18:13:00.905Z,14.45
2018-01-23T18:15:28.489Z,19.67
2018-01-23T18:17:56.131Z,11.27
2018-01-23T18:20:23.729Z,15.27
2018-01-23T18:22:52.178Z,8.35
2018-01-23T18:25:19.716Z,4.60
2018-01-23T18:27:47.325Z,10.20
2018-01-23T18:30:14.875Z,6.35
2018-01-23T18:32:42.495Z,7.62
2018-01-23T18:35:10.066Z,7.43
2018-01-23T18:37:38.575Z,7.75
2018-01-23T18:40:06.178Z,9.77
2018-01-23T18:42:33.805Z,9.40
2018-01-23T18:45:01.479Z,7.30
2018-01-23T18:47:29.771Z,4.05
2018-01-23T18:49:58.095Z,9.05
2018-01-23T18:52:26.492Z,7.53
2018-01-23T18:54:54.138Z,7.62
2018-01-23T18:57:21.871Z,9.05
2018-01-23T18:59:49.534Z,4.50
2018-01-23T19:02:17.156Z,5.62
2018-01-23T19:04:45.544Z,10.00
2018-01-23T19:07:13.102Z,10.05
2018-01-23T19:09:41.468Z,7.47
2018-01-23T19:12:09.126Z,7.00
2018-01-23T19:14:36.830Z,9.07
2018-01-23T19:17:04.408Z,5.85
2018-01-23T19:19:31.964Z,5.37
2018-01-23T19:21:59.620Z,7.12
2018-01-23T19:24:27.151Z,8.32
2018-01-23T19:26:55.491Z,8.52
2018-01-23T19:29:23.068Z,9.23
2018-01-23T19:31:50.624Z,4.35
2018-01-23T19:34:18.230Z,5.72
2018-01-23T19:36:45.820Z,5.68
2018-01-23T19:39:14.516Z,6.95
2018-01-23T19:41:42.381Z,6.22
2018-01-23T19:44:11.562Z,10.90
2018-01-23T19:46:39.241Z,10.55
2018-01-23T19:49:06.859Z,8.70
2018-01-23T19:51:34.467Z,8.45
2018-01-23T19:54:02.143Z,8.95
2018-01-23T19:56:29.792Z,10.55
2018-01-23T19:58:57.586Z,8.05
2018-01-23T20:01:25.182Z,13.73
2018-01-23T20:03:52.821Z,6.95
2018-01-23T20:06:20.369Z,8.10
2018-01-23T20:08:48.014Z,11.80
2018-01-23T20:11:15.685Z,11.07
2018-01-23T20:13:43.581Z,11.05
2018-01-23T20:16:11.200Z,9.13
2018-01-23T20:18:38.745Z,17.55
2018-01-23T20:21:06.451Z,14.32
2018-01-23T20:29:09.644Z,14.40
2018-01-23T20:31:37.742Z,12.45
2018-01-23T20:34:05.342Z,15.32
2018-01-23T20:36:32.996Z,10.18
2018-01-23T20:39:00.639Z,10.50
2018-01-23T20:41:28.302Z,15.30
2018-01-23T20:43:55.944Z,9.70
2018-01-23T20:49:06.637Z,17.37
2018-01-23T20:51:34.406Z,17.48
2018-01-23T20:54:01.993Z,10.90
2018-01-23T20:56:29.676Z,13.77
2018-01-23T20:58:57.205Z,19.77
2018-01-23T21:01:25.428Z,15.98
2018-01-23T21:03:54.733Z,14.48
2018-01-23T21:06:22.915Z,13.45
2018-01-23T21:08:50.648Z,12.00
2018-01-23T21:11:18.261Z,11.02
2018-01-23T21:13:45.826Z,15.45
2018-01-23T21:16:13.459Z,12.15
2018-01-23T21:21:31.672Z,12.37
2018-01-23T21:23:59.977Z,15.13
2018-01-23T21:26:27.548Z,18.67
2018-01-23T21:28:55.159Z,17.73
2018-01-23T21:31:23.878Z,13.88
2018-01-23T21:33:51.507Z,23.05
2018-01-23T21:36:19.179Z,20.50
2018-01-23T21:38:46.952Z,17.20
2018-01-23T21:41:14.913Z,14.87
2018-01-23T21:43:42.648Z,13.85
2018-01-23T21:46:11.453Z,17.52
2018-01-23T21:48:39.390Z,23.00
2018-01-23T21:51:07.213Z,14.90
2018-01-23T21:53:35.821Z,16.75
2018-01-23T21:56:04.132Z,12.65
2018-01-23T21:58:31.682Z,16.55
2018-01-23T22:00:59.246Z,16.15
2018-01-23T22:03:26.803Z,14.07
2018-01-23T22:05:56.685Z,15.93
2018-01-23T22:08:24.291Z,15.18
2018-01-23T22:10:51.931Z,13.85
2018-01-23T22:13:19.728Z,12.77
2018-01-23T22:15:47.827Z,13.65
2018-01-23T22:18:15.361Z,14.75
2018-01-23T22:20:42.978Z,16.33
2018-01-23T22:23:10.577Z,18.17
2018-01-23T22:25:38.156Z,14.25
2018-01-23T22:28:05.794Z,18.60
2018-01-23T22:30:33.768Z,21.62
2018-01-23T22:33:01.449Z,17.02
2018-01-23T22:35:29.013Z,16.83
2018-01-23T22:37:56.541Z,17.00
2018-01-23T22:40:24.120Z,19.80
2018-01-23T22:42:51.711Z,19.73
2018-01-23T22:45:19.382Z,22.45
2018-01-23T22:47:47.802Z,24.30
2018-01-23T22:50:15.363Z,20.50
2018-01-23T22:52:42.984Z,14.05
2018-01-23T22:55:10.578Z,23.67
2018-01-23T22:57:38.159Z,18.15
2018-01-23T23:00:05.804Z,14.38
2018-01-23T23:02:33.497Z,22.15
2018-01-23T23:05:01.072Z,15.40
2018-01-23T23:07:28.636Z,14.93
2018-01-23T23:09:56.235Z,18.35
2018-01-23T23:12:23.909Z,19.52
2018-01-23T23:14:51.551Z,18.98
2018-01-23T23:17:19.086Z,16.45
2018-01-23T23:19:46.705Z,14.30
2018-01-23T23:22:14.252Z,18.52
2018-01-23T23:24:41.866Z,15.98
2018-01-23T23:27:09.443Z,24.35
2018-01-23T23:29:36.997Z,15.25
2018-01-23T23:32:05.318Z,18.33
2018-01-23T23:34:32.890Z,13.50
2018-01-23T23:37:00.476Z,17.20
2018-01-23T23:39:28.073Z,19.10
2018-01-23T23:41:55.675Z,14.68
2018-01-23T23:44:23.282Z,15.40
2018-01-23T23:46:50.923Z,14.23
2018-01-23T23:49:18.541Z,20.08
2018-01-23T23:51:46.106Z,14.95
2018-01-23T23:54:13.687Z,19.30
2018-01-23T23:56:41.258Z,13.32
2018-01-23T23:59:08.910Z,19.87
